Time;durP1;ratioP1;P1;durP2;ratioP2;P2;SDS_P1;SDS_P2;PMS_P1;PMS_P2;Temp;Humidity;BMP_temperature;BMP_pressure;BME280_temperature;BME280_humidity;BME280_pressure;Samples;Min_cycle;Max_cycle;Signal;HPM_P1;HPM_P2
2024/02/29 00:00:33;;;;;;;;;;;;;;;;;;5044494;28;19920;-76
2024/02/29 00:02:59;;;;;;;;;;;;;;;;;;5035455;28;20383;-76
2024/02/29 00:05:25;;;;;;;;;;;;;;;;;;5038747;28;19916;-76
2024/02/29 00:07:51;;;;;;;;;;;;;;;;;;5036317;28;19917;-76
2024/02/29 00:10:17;;;;;;;;;;;;;;;;;;5036780;28;19916;-76
2024/02/29 00:12:43;;;;;;;;;;;;;;;;;;5049164;28;19991;-76
2024/02/29 00:15:10;;;;;;;;;;;;;;;;;;5057649;28;20378;-76
2024/02/29 00:17:36;;;;;;;;;;;;;;;;;;5049970;28;20007;-76
2024/02/29 00:20:02;;;;;;;;;;;;;;;;;;5044582;28;20315;-76
2024/02/29 00:22:28;;;;;;;;;;;;;;;;;;5046728;28;19913;-76
2024/02/29 00:24:55;;;;;;;;;;;;;;;;;;5046154;28;19936;-76
2024/02/29 00:27:21;;;;;;;;;;;;;;;;;;5047340;28;20493;-76
2024/02/29 00:29:46;;;;;;;;;;;;;;;;;;5043830;28;20393;-77
2024/02/29 00:32:12;;;;;;;;;;;;;;;;;;5048150;28;19917;-76
2024/02/29 00:34:38;;;;;;;;;;;;;;;;;;5040006;28;19920;-76
2024/02/29 00:37:04;;;;;;;;;;;;;;;;;;5046754;28;19948;-76
2024/02/29 00:39:30;;;;;;;;;;;;;;;;;;5038521;28;19920;-76
2024/02/29 00:41:56;;;;;;;;;;;;;;;;;;5041651;28;19923;-77
2024/02/29 00:44:21;;;;;;;;;;;;;;;;;;5046818;28;19921;-76
2024/02/29 00:46:47;;;;;;;;;;;;;;;;;;5039554;28;19974;-76
2024/02/29 00:49:13;;;;;;;;;;;;;;;;;;5042493;28;19917;-77
2024/02/29 00:51:39;;;;;;;;;;;;;;;;;;5048530;28;19909;-76
2024/02/29 00:54:05;;;;;;;;;;;;;;;;;;5045245;28;20314;-76
2024/02/29 00:56:31;;;;;;;;;;;;;;;;;;5045258;28;19928;-77
2024/02/29 00:58:57;;;;;;;;;;;;;;;;;;5045693;28;19912;-76
2024/02/29 01:01:23;;;;;;;;;;;;;;;;;;5042048;28;20051;-77
2024/02/29 01:03:48;;;;;;;;;;;;;;;;;;5041064;28;19912;-76
2024/02/29 01:06:15;;;;;;;;;;;;;;;;;;5054576;28;19916;-77
2024/02/29 01:08:41;;;;;;;;;;;;;;;;;;5048114;28;19923;-76
2024/02/29 01:11:07;;;;;;;;;;;;;;;;;;5045789;28;19909;-76
2024/02/29 01:13:33;;;;;;;;;;;;;;;;;;5047318;28;19955;-77
2024/02/29 01:15:59;;;;;;;;;;;;;;;;;;5045590;28;19917;-76
2024/02/29 01:18:25;;;;;;;;;;;;;;;;;;5044240;28;19924;-76
2024/02/29 01:20:50;;;;;;;;;;;;;;;;;;5048857;28;19940;-76
2024/02/29 01:23:16;;;;;;;;;;;;;;;;;;5046860;28;19975;-76
2024/02/29 01:25:42;;;;;;;;;;;;;;;;;;5048854;28;19908;-76
2024/02/29 01:28:08;;;;;;;;;;;;;;;;;;5032109;28;19919;-76
2024/02/29 01:30:34;;;;;;;;;;;;;;;;;;5035288;28;19917;-76
2024/02/29 01:33:00;;;;;;;;;;;;;;;;;;5043454;28;19920;-77
2024/02/29 01:35:26;;;;;;;;;;;;;;;;;;5046405;28;19920;-76
2024/02/29 01:37:52;;;;;;;;;;;;;;;;;;5047666;28;20335;-76
2024/02/29 01:40:18;;;;;;;;;;;;;;;;;;5048507;28;19917;-76
2024/02/29 01:42:44;;;;;;;;;;;;;;;;;;5038881;28;20023;-76
2024/02/29 01:45:10;;;;;;;;;;;;;;;;;;5040002;28;20426;-76
2024/02/29 01:47:36;;;;;;;;;;;;;;;;;;5046293;28;20382;-76
2024/02/29 01:50:05;;;;;;;;;;;;;;;;;;5046410;28;20407;-76
2024/02/29 01:52:31;;;;;;;;;;;;;;;;;;5044119;28;19936;-76
2024/02/29 01:54:57;;;;;;;;;;;;;;;;;;5041996;28;20375;-76
2024/02/29 01:57:23;;;;;;;;;;;;;;;;;;5045987;28;19955;-76
2024/02/29 01:59:48;;;;;;;;;;;;;;;;;;5036294;28;19971;-76
2024/02/29 02:02:14;;;;;;;;;;;;;;;;;;5038121;28;19917;-76
2024/02/29 02:04:40;;;;;;;;;;;;;;;;;;5047143;28;19952;-76
2024/02/29 02:07:06;;;;;;;;;;;;;;;;;;5040664;28;19912;-76
2024/02/29 02:09:32;;;;;;;;;;;;;;;;;;5043586;28;19948;-77
2024/02/29 02:11:58;;;;;;;;;;;;;;;;;;5041150;28;20394;-76
2024/02/29 02:14:24;;;;;;;;;;;;;;;;;;5046668;28;19913;-77
2024/02/29 02:16:50;;;;;;;;;;;;;;;;;;5039302;28;19942;-77
2024/02/29 02:19:16;;;;;;;;;;;;;;;;;;5043243;28;20387;-76
2024/02/29 02:21:43;;;;;;;;;;;;;;;;;;5047866;28;20282;-76
2024/02/29 02:24:08;;;;;;;;;;;;;;;;;;5045081;28;19912;-76
2024/02/29 02:26:34;;;;;;;;;;;;;;;;;;5036132;28;19920;-77
2024/02/29 02:29:00;;;;;;;;;;;;;;;;;;5038561;28;19921;-77
2024/02/29 02:31:26;;;;;;;;;;;;;;;;;;5044271;28;19920;-77
2024/02/29 02:33:52;;;;;;;;;;;;;;;;;;5031354;28;19913;-77
2024/02/29 02:36:18;;;;;;;;;;;;;;;;;;5046442;28;19931;-77
2024/02/29 02:38:44;;;;;;;;;;;;;;;;;;5050985;28;20019;-77
2024/02/29 02:41:11;;;;;;;;;;;;;;;;;;5038983;28;19962;-77
2024/02/29 02:43:37;;;;;;;;;;;;;;;;;;5049488;28;20389;-76
2024/02/29 02:46:03;;;;;;;;;;;;;;;;;;5039781;28;19917;-77
2024/02/29 02:48:28;;;;;;;;;;;;;;;;;;5043149;28;20323;-77
2024/02/29 02:50:54;;;;;;;;;;;;;;;;;;5036303;28;19978;-77
2024/02/29 02:53:20;;;;;;;;;;;;;;;;;;5050965;28;19912;-77
2024/02/29 02:55:46;;;;;;;;;;;;;;;;;;5035011;28;19952;-77
2024/02/29 02:58:12;;;;;;;;;;;;;;;;;;5038525;28;20549;-77
2024/02/29 03:00:38;;;;;;;;;;;;;;;;;;5040547;28;20279;-76
2024/02/29 03:03:04;;;;;;;;;;;;;;;;;;5032166;28;19944;-77
2024/02/29 03:05:29;;;;;;;;;;;;;;;;;;5043720;28;19917;-76
2024/02/29 03:07:58;;;;;;;;;;;;;;;;;;5035705;28;19996;-77
2024/02/29 03:10:24;;;;;;;;;;;;;;;;;;5045635;28;19913;-77
2024/02/29 03:12:50;;;;;;;;;;;;;;;;;;5038271;28;20269;-77
2024/02/29 03:15:16;;;;;;;;;;;;;;;;;;5037355;28;19920;-78
2024/02/29 03:17:42;;;;;;;;;;;;;;;;;;5040784;28;20280;-77
2024/02/29 03:20:14;;;;;;;;;;;;;;;;;;5040935;28;19921;-76
2024/02/29 03:22:39;;;;;;;;;;;;;;;;;;5042878;28;20525;-76
2024/02/29 03:25:05;;;;;;;;;;;;;;;;;;5040057;28;19951;-78
2024/02/29 03:27:31;;;;;;;;;;;;;;;;;;5036743;28;20287;-77
2024/02/29 03:29:59;;;;;;;;;;;;;;;;;;5045112;28;20519;-78
2024/02/29 03:32:25;;;;;;;;;;;;;;;;;;5046128;28;19952;-77
2024/02/29 03:34:50;;;;;;;;;;;;;;;;;;5036271;28;20376;-78
2024/02/29 03:37:16;;;;;;;;;;;;;;;;;;5045216;28;20436;-77
2024/02/29 03:39:42;;;;;;;;;;;;;;;;;;5049370;28;19917;-77
2024/02/29 03:42:08;;;;;;;;;;;;;;;;;;5048643;28;19915;-77
2024/02/29 03:44:34;;;;;;;;;;;;;;;;;;5047370;28;19967;-78
2024/02/29 03:47:00;;;;;;;;;;;;;;;;;;5045718;28;20302;-78
2024/02/29 03:49:26;;;;;;;;;;;;;;;;;;5047409;28;19917;-78
2024/02/29 03:51:52;;;;;;;;;;;;;;;;;;5042811;28;19909;-77
2024/02/29 03:54:18;;;;;;;;;;;;;;;;;;5047119;28;20370;-78
2024/02/29 03:56:43;;;;;;;;;;;;;;;;;;5048613;28;20331;-78
2024/02/29 03:59:09;;;;;;;;;;;;;;;;;;5050603;28;19913;-77
2024/02/29 04:01:37;;;;;;;;;;;;;;;;;;5051017;28;20008;-77
2024/02/29 04:04:02;;;;;;;;;;;;;;;;;;5048359;28;19916;-78
2024/02/29 04:06:28;;;;;;;;;;;;;;;;;;5058739;28;20664;-77
2024/02/29 04:08:54;;;;;;;;;;;;;;;;;;5045433;28;19959;-77
2024/02/29 04:11:20;;;;;;;;;;;;;;;;;;5049888;28;20329;-77
2024/02/29 04:13:47;;;;;;;;;;;;;;;;;;5047468;28;19916;-77
2024/02/29 04:16:13;;;;;;;;;;;;;;;;;;5047210;28;19913;-77
2024/02/29 04:18:39;;;;;;;;;;;;;;;;;;5046244;28;19960;-77
2024/02/29 04:21:05;;;;;;;;;;;;;;;;;;5032617;28;20348;-77
2024/02/29 04:23:31;;;;;;;;;;;;;;;;;;5046370;28;20264;-77
2024/02/29 04:25:57;;;;;;;;;;;;;;;;;;5048371;28;19936;-77
2024/02/29 04:28:22;;;;;;;;;;;;;;;;;;5047266;28;20003;-76
2024/02/29 04:30:48;;;;;;;;;;;;;;;;;;5040840;28;19913;-78
2024/02/29 04:33:14;;;;;;;;;;;;;;;;;;5041641;28;20051;-78
2024/02/29 04:35:40;;;;;;;;;;;;;;;;;;5044492;28;20367;-78
2024/02/29 04:38:06;;;;;;;;;;;;;;;;;;5049243;28;20303;-77
2024/02/29 04:40:32;;;;;;;;;;;;;;;;;;5037082;28;19928;-78
2024/02/29 04:42:58;;;;;;;;;;;;;;;;;;5049551;28;19948;-78
2024/02/29 04:45:25;;;;;;;;;;;;;;;;;;5037113;28;20010;-78
2024/02/29 04:47:52;;;;;;;;;;;;;;;;;;5041112;28;19920;-78
2024/02/29 04:50:18;;;;;;;;;;;;;;;;;;5047558;28;19913;-77
2024/02/29 04:52:44;;;;;;;;;;;;;;;;;;5041880;28;19913;-76
2024/02/29 04:55:10;;;;;;;;;;;;;;;;;;5046199;28;19912;-76
2024/02/29 04:57:36;;;;;;;;;;;;;;;;;;5038608;28;19919;-76
2024/02/29 05:00:01;;;;;;;;;;;;;;;;;;5039835;28;19917;-76
2024/02/29 05:02:27;;;;;;;;;;;;;;;;;;5038105;28;19951;-78
2024/02/29 05:04:53;;;;;;;;;;;;;;;;;;5038451;28;20457;-76
2024/02/29 05:07:21;;;;;;;;;;;;;;;;;;5036757;28;19913;-76
2024/02/29 05:09:46;;;;;;;;;;;;;;;;;;5041859;28;19921;-76
2024/02/29 05:12:12;;;;;;;;;;;;;;;;;;5049172;28;19958;-76
2024/02/29 05:14:38;;;;;;;;;;;;;;;;;;5047130;28;19912;-76
2024/02/29 05:17:04;;;;;;;;;;;;;;;;;;5044210;28;20375;-76
2024/02/29 05:19:31;;;;;;;;;;;;;;;;;;5062798;28;20279;-76
2024/02/29 05:21:56;;;;;;;;;;;;;;;;;;5044158;28;19913;-83
2024/02/29 05:24:22;;;;;;;;;;;;;;;;;;5043240;28;19921;-76
2024/02/29 05:26:48;;;;;;;;;;;;;;;;;;5046860;28;20011;-76
2024/02/29 05:29:14;;;;;;;;;;;;;;;;;;5040635;28;19913;-76
2024/02/29 05:31:40;;;;;;;;;;;;;;;;;;5045403;28;19935;-76
2024/02/29 05:34:07;;;;;;;;;;;;;;;;;;5046117;28;19913;-77
2024/02/29 05:36:33;;;;;;;;;;;;;;;;;;5041159;28;20446;-78
2024/02/29 05:38:59;;;;;;;;;;;;;;;;;;5057369;28;20058;-77
2024/02/29 05:41:25;;;;;;;;;;;;;;;;;;5047131;28;19917;-78
2024/02/29 05:43:51;;;;;;;;;;;;;;;;;;5044359;28;20366;-77
2024/02/29 05:46:17;;;;;;;;;;;;;;;;;;5047632;28;20402;-77
2024/02/29 05:48:42;;;;;;;;;;;;;;;;;;5047706;28;19917;-77
2024/02/29 05:51:08;;;;;;;;;;;;;;;;;;5048874;28;20025;-77
2024/02/29 05:53:34;;;;;;;;;;;;;;;;;;5046792;28;19916;-77
2024/02/29 05:56:00;;;;;;;;;;;;;;;;;;5048045;28;20409;-77
2024/02/29 05:58:30;;;;;;;;;;;;;;;;;;5043170;28;19913;-76
2024/02/29 06:00:56;;;;;;;;;;;;;;;;;;5037934;28;19923;-77
2024/02/29 06:03:22;;;;;;;;;;;;;;;;;;5042554;28;19991;-77
2024/02/29 06:05:48;;;;;;;;;;;;;;;;;;5037947;28;19923;-76
2024/02/29 06:08:14;;;;;;;;;;;;;;;;;;5039014;28;20011;-77
2024/02/29 06:10:46;;;;;;;;;;;;;;;;;;5034612;28;19996;-77
2024/02/29 06:13:12;;;;;;;;;;;;;;;;;;5042456;28;19909;-76
2024/02/29 06:15:38;;;;;;;;;;;;;;;;;;5039429;28;19912;-79
2024/02/29 06:18:04;;;;;;;;;;;;;;;;;;5040806;28;19967;-78
2024/02/29 06:20:30;;;;;;;;;;;;;;;;;;5038565;28;19928;-78
2024/02/29 06:22:58;;;;;;;;;;;;;;;;;;5033978;28;20247;-78
2024/02/29 06:25:24;;;;;;;;;;;;;;;;;;5038970;28;19920;-79
2024/02/29 06:27:50;;;;;;;;;;;;;;;;;;5048397;28;19913;-79
2024/02/29 06:30:16;;;;;;;;;;;;;;;;;;5041634;28;19913;-79
2024/02/29 06:32:44;;;;;;;;;;;;;;;;;;5044087;28;19917;-79
2024/02/29 06:35:10;;;;;;;;;;;;;;;;;;5047201;28;19916;-78
2024/02/29 06:37:36;;;;;;;;;;;;;;;;;;5046234;28;19912;-78
2024/02/29 06:40:02;;;;;;;;;;;;;;;;;;5047815;28;19913;-79
2024/02/29 06:42:28;;;;;;;;;;;;;;;;;;5043204;28;20350;-79
2024/02/29 06:44:54;;;;;;;;;;;;;;;;;;5047907;28;19924;-78
2024/02/29 06:47:20;;;;;;;;;;;;;;;;;;5037883;28;19954;-78
2024/02/29 06:49:46;;;;;;;;;;;;;;;;;;5048173;28;20766;-78
2024/02/29 06:52:11;;;;;;;;;;;;;;;;;;5044454;28;19913;-79
2024/02/29 06:54:37;;;;;;;;;;;;;;;;;;5040545;28;19921;-78
2024/02/29 06:57:09;;;;;;;;;;;;;;;;;;5047561;28;19990;-79
2024/02/29 06:59:35;;;;;;;;;;;;;;;;;;5040922;28;20386;-78
2024/02/29 07:02:01;;;;;;;;;;;;;;;;;;5041482;28;19912;-80
2024/02/29 07:04:26;;;;;;;;;;;;;;;;;;5039603;28;19920;-79
2024/02/29 07:06:52;;;;;;;;;;;;;;;;;;5047465;28;19917;-79
2024/02/29 07:09:18;;;;;;;;;;;;;;;;;;5037429;28;20051;-79
2024/02/29 07:11:45;;;;;;;;;;;;;;;;;;5045577;28;19920;-79
2024/02/29 07:14:11;;;;;;;;;;;;;;;;;;5046670;28;19916;-79
2024/02/29 07:16:38;;;;;;;;;;;;;;;;;;5051047;28;19947;-79
2024/02/29 07:19:04;;;;;;;;;;;;;;;;;;5047792;28;19920;-79
2024/02/29 07:21:31;;;;;;;;;;;;;;;;;;5046434;28;20431;-79
2024/02/29 07:23:57;;;;;;;;;;;;;;;;;;5040037;28;19966;-79
2024/02/29 07:26:23;;;;;;;;;;;;;;;;;;5043873;28;19921;-79
2024/02/29 07:28:49;;;;;;;;;;;;;;;;;;5052970;28;19924;-78
2024/02/29 07:31:15;;;;;;;;;;;;;;;;;;5048287;28;19917;-79
2024/02/29 07:33:41;;;;;;;;;;;;;;;;;;5057033;28;19963;-78
2024/02/29 07:36:06;;;;;;;;;;;;;;;;;;5041329;28;19967;-78
2024/02/29 07:38:32;;;;;;;;;;;;;;;;;;5047705;28;20291;-79
2024/02/29 07:40:58;;;;;;;;;;;;;;;;;;5046666;28;20338;-78
2024/02/29 07:43:24;;;;;;;;;;;;;;;;;;5047691;28;20008;-78
2024/02/29 07:45:50;;;;;;;;;;;;;;;;;;5051010;28;19924;-82
2024/02/29 07:48:16;;;;;;;;;;;;;;;;;;5040663;28;19909;-79
2024/02/29 07:50:41;;;;;;;;;;;;;;;;;;5040694;28;20391;-82
2024/02/29 07:53:08;;;;;;;;;;;;;;;;;;5046251;28;20596;-82
2024/02/29 07:55:34;;;;;;;;;;;;;;;;;;5045728;28;19944;-81
2024/02/29 07:58:00;;;;;;;;;;;;;;;;;;5051460;28;20303;-81
2024/02/29 08:00:26;;;;;;;;;;;;;;;;;;5046132;28;19928;-81
2024/02/29 08:02:52;;;;;;;;;;;;;;;;;;5049419;28;20382;-81
2024/02/29 08:05:18;;;;;;;;;;;;;;;;;;5045441;28;19948;-82
2024/02/29 08:07:48;;;;;;;;;;;;;;;;;;5035572;28;19924;-87
2024/02/29 08:10:15;;;;;;;;;;;;;;;;;;5048576;28;19928;-82
2024/02/29 08:12:41;;;;;;;;;;;;;;;;;;5053200;28;19913;-77
2024/02/29 08:15:07;;;;;;;;;;;;;;;;;;5055312;28;20167;-79
2024/02/29 08:17:33;;;;;;;;;;;;;;;;;;5051284;28;19986;-80
2024/02/29 08:19:59;;;;;;;;;;;;;;;;;;5044901;28;19924;-84
2024/02/29 08:22:24;;;;;;;;;;;;;;;;;;5053113;28;19908;-78
2024/02/29 08:24:50;;;;;;;;;;;;;;;;;;5051022;28;19917;-78
2024/02/29 08:27:16;;;;;;;;;;;;;;;;;;5050190;28;19913;-77
2024/02/29 08:29:42;;;;;;;;;;;;;;;;;;5049473;28;19920;-76
2024/02/29 08:32:08;;;;;;;;;;;;;;;;;;5048579;28;19917;-76
2024/02/29 08:34:34;;;;;;;;;;;;;;;;;;5049124;28;19927;-77
2024/02/29 08:36:59;;;;;;;;;;;;;;;;;;5048057;28;19949;-77
2024/02/29 08:39:25;;;;;;;;;;;;;;;;;;5039565;28;19912;-76
2024/02/29 08:41:51;;;;;;;;;;;;;;;;;;5047013;28;19963;-77
2024/02/29 08:44:17;;;;;;;;;;;;;;;;;;5042542;28;19951;-77
2024/02/29 08:46:43;;;;;;;;;;;;;;;;;;5044861;28;19944;-78
2024/02/29 08:49:09;;;;;;;;;;;;;;;;;;5049731;28;19913;-77
2024/02/29 08:51:35;;;;;;;;;;;;;;;;;;5048727;28;20279;-78
2024/02/29 08:54:01;;;;;;;;;;;;;;;;;;5043159;28;19920;-78
2024/02/29 08:56:28;;;;;;;;;;;;;;;;;;5041625;28;20279;-77
2024/02/29 08:58:54;;;;;;;;;;;;;;;;;;5045143;28;19917;-78
2024/02/29 09:01:19;;;;;;;;;;;;;;;;;;5039895;28;19917;-78
2024/02/29 09:03:45;;;;;;;;;;;;;;;;;;5045540;28;19970;-78
2024/02/29 09:06:11;;;;;;;;;;;;;;;;;;5048516;28;20007;-78
2024/02/29 09:08:37;;;;;;;;;;;;;;;;;;5031350;28;19921;-78
2024/02/29 09:11:03;;;;;;;;;;;;;;;;;;5033322;28;19924;-78
2024/02/29 09:13:29;;;;;;;;;;;;;;;;;;5044617;28;20271;-78
2024/02/29 09:15:56;;;;;;;;;;;;;;;;;;5039373;28;20264;-78
2024/02/29 09:18:22;;;;;;;;;;;;;;;;;;5037493;28;19928;-78
2024/02/29 09:20:48;;;;;;;;;;;;;;;;;;5035750;28;19921;-78
2024/02/29 09:23:14;;;;;;;;;;;;;;;;;;5032843;28;20417;-78
2024/02/29 09:25:39;;;;;;;;;;;;;;;;;;5033108;28;20287;-77
2024/02/29 09:28:05;;;;;;;;;;;;;;;;;;5048612;28;20319;-78
2024/02/29 09:30:31;;;;;;;;;;;;;;;;;;5040546;28;19913;-77
2024/02/29 09:32:57;;;;;;;;;;;;;;;;;;5042622;28;19913;-77
2024/02/29 09:35:23;;;;;;;;;;;;;;;;;;5041375;28;19919;-78
2024/02/29 09:37:49;;;;;;;;;;;;;;;;;;5044219;28;20033;-78
2024/02/29 09:40:15;;;;;;;;;;;;;;;;;;5043065;28;20481;-78
2024/02/29 09:42:41;;;;;;;;;;;;;;;;;;5042920;28;19917;-78
2024/02/29 09:45:07;;;;;;;;;;;;;;;;;;5044364;28;20390;-78
2024/02/29 09:47:33;;;;;;;;;;;;;;;;;;5035932;28;20426;-78
2024/02/29 09:49:59;;;;;;;;;;;;;;;;;;5047645;28;19919;-78
2024/02/29 09:52:25;;;;;;;;;;;;;;;;;;5043396;28;20016;-78
2024/02/29 09:54:51;;;;;;;;;;;;;;;;;;5038126;28;20012;-78
2024/02/29 09:57:16;;;;;;;;;;;;;;;;;;5045780;28;19913;-76
2024/02/29 09:59:42;;;;;;;;;;;;;;;;;;5048463;28;19925;-78
2024/02/29 10:02:08;;;;;;;;;;;;;;;;;;5038108;28;19913;-78
2024/02/29 10:04:34;;;;;;;;;;;;;;;;;;5041414;28;19914;-77
2024/02/29 10:07:00;;;;;;;;;;;;;;;;;;5041010;28;19913;-77
2024/02/29 10:09:30;;;;;;;;;;;;;;;;;;5040588;28;19918;-77
2024/02/29 10:11:56;;;;;;;;;;;;;;;;;;5046114;28;19912;-78
2024/02/29 10:14:21;;;;;;;;;;;;;;;;;;5048998;28;19916;-78
2024/02/29 10:16:47;;;;;;;;;;;;;;;;;;5046596;28;19916;-77
2024/02/29 10:19:13;;;;;;;;;;;;;;;;;;5040520;28;20387;-78
2024/02/29 10:21:39;;;;;;;;;;;;;;;;;;5042324;28;19920;-79
2024/02/29 10:24:05;;;;;;;;;;;;;;;;;;5048252;28;19967;-77
2024/02/29 10:26:31;;;;;;;;;;;;;;;;;;5042189;28;19913;-76
2024/02/29 10:28:57;;;;;;;;;;;;;;;;;;5049932;28;19913;-77
2024/02/29 10:31:23;;;;;;;;;;;;;;;;;;5040440;28;19913;-76
2024/02/29 10:33:48;;;;;;;;;;;;;;;;;;5041659;28;19916;-77
2024/02/29 10:36:15;;;;;;;;;;;;;;;;;;5034438;28;21444;-77
2024/02/29 10:38:41;;;;;;;;;;;;;;;;;;5029042;28;20018;-77
2024/02/29 10:41:07;;;;;;;;;;;;;;;;;;5038681;28;20407;-77
2024/02/29 10:43:33;;;;;;;;;;;;;;;;;;5038954;28;19921;-78
2024/02/29 10:45:59;;;;;;;;;;;;;;;;;;5038980;28;19924;-78
2024/02/29 10:48:25;;;;;;;;;;;;;;;;;;5045493;28;20288;-78
2024/02/29 10:50:50;;;;;;;;;;;;;;;;;;5051749;28;19923;-78
2024/02/29 10:53:17;;;;;;;;;;;;;;;;;;5051068;28;20011;-78
2024/02/29 10:55:47;;;;;;;;;;;;;;;;;;5046063;28;19935;-81
2024/02/29 10:58:12;;;;;;;;;;;;;;;;;;5044172;28;20449;-81
2024/02/29 11:00:39;;;;;;;;;;;;;;;;;;5045586;28;20019;-83
2024/02/29 11:03:05;;;;;;;;;;;;;;;;;;5035106;28;19925;-79
2024/02/29 11:05:31;;;;;;;;;;;;;;;;;;5049351;28;19913;-80
2024/02/29 11:07:57;;;;;;;;;;;;;;;;;;5043829;28;20342;-81
2024/02/29 11:10:23;;;;;;;;;;;;;;;;;;5062430;28;20329;-79
2024/02/29 11:12:49;;;;;;;;;;;;;;;;;;5041215;28;19936;-77
2024/02/29 11:15:14;;;;;;;;;;;;;;;;;;5045478;28;20027;-78
2024/02/29 11:17:43;;;;;;;;;;;;;;;;;;5055802;28;20350;-78
2024/02/29 11:20:09;;;;;;;;;;;;;;;;;;5051074;28;20122;-77
2024/02/29 11:22:38;;;;;;;;;;;;;;;;;;5055993;28;20346;-77
2024/02/29 11:25:09;;;;;;;;;;;;;;;;;;5049505;28;19917;-78
2024/02/29 11:27:35;;;;;;;;;;;;;;;;;;5044896;28;19949;-78
2024/02/29 11:30:01;;;;;;;;;;;;;;;;;;5051202;28;20013;-77
2024/02/29 11:32:33;;;;;;;;;;;;;;;;;;5038365;28;20440;-78
2024/02/29 11:34:59;;;;;;;;;;;;;;;;;;5056972;28;19916;-77
2024/02/29 11:37:25;;;;;;;;;;;;;;;;;;5047090;28;19923;-78
2024/02/29 11:39:51;;;;;;;;;;;;;;;;;;5040598;28;19925;-78
2024/02/29 11:42:17;;;;;;;;;;;;;;;;;;5049232;28;20126;-77
2024/02/29 11:44:43;;;;;;;;;;;;;;;;;;5058434;28;19913;-77
2024/02/29 11:47:09;;;;;;;;;;;;;;;;;;5050014;28;19953;-77
2024/02/29 11:49:34;;;;;;;;;;;;;;;;;;5040726;28;19968;-77
2024/02/29 11:52:00;;;;;;;;;;;;;;;;;;5043142;28;19920;-78
2024/02/29 11:54:26;;;;;;;;;;;;;;;;;;5062541;28;19919;-77
2024/02/29 11:56:53;;;;;;;;;;;;;;;;;;5048894;28;19966;-78
2024/02/29 11:59:19;;;;;;;;;;;;;;;;;;5051247;28;19940;-76
2024/02/29 12:01:45;;;;;;;;;;;;;;;;;;5063525;28;19985;-77
2024/02/29 12:04:11;;;;;;;;;;;;;;;;;;5050896;28;19913;-77
2024/02/29 12:06:37;;;;;;;;;;;;;;;;;;5050410;28;19913;-77
2024/02/29 12:09:03;;;;;;;;;;;;;;;;;;5059884;28;19920;-77
2024/02/29 12:11:28;;;;;;;;;;;;;;;;;;5050068;28;20379;-77
2024/02/29 12:13:54;;;;;;;;;;;;;;;;;;5053401;28;20280;-77
2024/02/29 12:16:20;;;;;;;;;;;;;;;;;;5034490;28;20294;-77
2024/02/29 12:18:46;;;;;;;;;;;;;;;;;;5058252;28;19931;-77
2024/02/29 12:21:13;;;;;;;;;;;;;;;;;;5049442;28;20363;-77
2024/02/29 12:23:39;;;;;;;;;;;;;;;;;;5062571;28;19962;-78
2024/02/29 12:26:04;;;;;;;;;;;;;;;;;;5049672;28;19988;-78
2024/02/29 12:28:30;;;;;;;;;;;;;;;;;;5047618;28;19920;-79
2024/02/29 12:30:56;;;;;;;;;;;;;;;;;;5049634;28;19913;-78
2024/02/29 12:33:22;;;;;;;;;;;;;;;;;;5057464;28;19955;-78
2024/02/29 12:35:48;;;;;;;;;;;;;;;;;;5049174;28;19924;-78
2024/02/29 12:38:14;;;;;;;;;;;;;;;;;;5053134;28;19917;-77
2024/02/29 12:40:39;;;;;;;;;;;;;;;;;;5039967;28;20364;-77
2024/02/29 12:43:05;;;;;;;;;;;;;;;;;;5058610;28;19912;-77
2024/02/29 12:45:31;;;;;;;;;;;;;;;;;;5052518;28;20327;-77
2024/02/29 12:47:57;;;;;;;;;;;;;;;;;;5048969;28;19921;-77
2024/02/29 12:50:23;;;;;;;;;;;;;;;;;;5057724;28;19916;-76
2024/02/29 12:52:53;;;;;;;;;;;;;;;;;;5036644;28;19916;-78
2024/02/29 12:55:19;;;;;;;;;;;;;;;;;;5041500;28;19913;-78
2024/02/29 12:57:45;;;;;;;;;;;;;;;;;;5043971;28;19913;-78
2024/02/29 13:00:11;;;;;;;;;;;;;;;;;;5041436;28;20364;-78
2024/02/29 13:02:37;;;;;;;;;;;;;;;;;;5042511;28;20395;-77
2024/02/29 13:05:03;;;;;;;;;;;;;;;;;;5043160;28;19921;-77
2024/02/29 13:07:29;;;;;;;;;;;;;;;;;;5036413;28;19917;-78
2024/02/29 13:09:54;;;;;;;;;;;;;;;;;;5048266;28;19928;-77
2024/02/29 13:12:20;;;;;;;;;;;;;;;;;;5038740;28;19917;-77
2024/02/29 13:14:46;;;;;;;;;;;;;;;;;;5045721;28;19913;-77
2024/02/29 13:17:12;;;;;;;;;;;;;;;;;;5057834;28;19909;-77
2024/02/29 13:19:38;;;;;;;;;;;;;;;;;;5046553;28;19928;-77
2024/02/29 13:22:04;;;;;;;;;;;;;;;;;;5045117;28;19924;-76
2024/02/29 13:24:29;;;;;;;;;;;;;;;;;;5041797;28;19924;-77
2024/02/29 13:26:55;;;;;;;;;;;;;;;;;;5048467;28;19989;-78
2024/02/29 13:29:21;;;;;;;;;;;;;;;;;;5047914;28;21294;-77
2024/02/29 13:31:47;;;;;;;;;;;;;;;;;;5047602;28;20329;-78
2024/02/29 13:34:13;;;;;;;;;;;;;;;;;;5057495;28;20287;-78
2024/02/29 13:36:39;;;;;;;;;;;;;;;;;;5043753;28;19996;-77
2024/02/29 13:39:07;;;;;;;;;;;;;;;;;;5042087;28;20007;-77
2024/02/29 13:41:35;;;;;;;;;;;;;;;;;;5041481;28;20497;-77
2024/02/29 13:44:01;;;;;;;;;;;;;;;;;;5046526;28;19999;-78
2024/02/29 13:46:27;;;;;;;;;;;;;;;;;;5042480;28;19995;-79
2024/02/29 13:48:53;;;;;;;;;;;;;;;;;;5041361;28;19996;-78
2024/02/29 13:51:19;;;;;;;;;;;;;;;;;;5044703;28;19917;-78
2024/02/29 13:53:44;;;;;;;;;;;;;;;;;;5038936;28;20007;-78
2024/02/29 13:56:12;;;;;;;;;;;;;;;;;;5044687;28;20005;-78
2024/02/29 13:58:38;;;;;;;;;;;;;;;;;;5044886;28;20014;-79
2024/02/29 14:01:04;;;;;;;;;;;;;;;;;;5041979;28;20573;-78
2024/02/29 14:03:30;;;;;;;;;;;;;;;;;;5040917;28;20367;-77
2024/02/29 14:05:56;;;;;;;;;;;;;;;;;;5055330;28;19955;-78
2024/02/29 14:08:22;;;;;;;;;;;;;;;;;;5048694;28;19944;-78
2024/02/29 14:10:48;;;;;;;;;;;;;;;;;;5045063;28;19925;-76
2024/02/29 14:13:13;;;;;;;;;;;;;;;;;;5041612;28;19913;-76
2024/02/29 14:15:39;;;;;;;;;;;;;;;;;;5042008;28;19974;-76
2024/02/29 14:18:05;;;;;;;;;;;;;;;;;;5048210;28;19928;-78
2024/02/29 14:20:31;;;;;;;;;;;;;;;;;;5033144;28;19920;-76
2024/02/29 14:22:57;;;;;;;;;;;;;;;;;;5041217;28;19923;-76
2024/02/29 14:25:23;;;;;;;;;;;;;;;;;;5048432;28;19919;-77
2024/02/29 14:27:50;;;;;;;;;;;;;;;;;;5040876;28;19929;-77
2024/02/29 14:30:16;;;;;;;;;;;;;;;;;;5046991;28;19955;-77
2024/02/29 14:32:42;;;;;;;;;;;;;;;;;;5048301;28;19952;-77
2024/02/29 14:35:08;;;;;;;;;;;;;;;;;;5050429;28;19924;-78
2024/02/29 14:37:34;;;;;;;;;;;;;;;;;;5047911;28;19971;-77
2024/02/29 14:40:00;;;;;;;;;;;;;;;;;;5046413;28;19925;-78
2024/02/29 14:42:26;;;;;;;;;;;;;;;;;;5046552;28;19991;-77
2024/02/29 14:44:52;;;;;;;;;;;;;;;;;;5059094;28;19959;-77
2024/02/29 14:47:18;;;;;;;;;;;;;;;;;;5047857;28;19908;-77
2024/02/29 14:49:43;;;;;;;;;;;;;;;;;;5050517;28;19913;-77
2024/02/29 14:52:09;;;;;;;;;;;;;;;;;;5058913;28;19912;-77
2024/02/29 14:54:35;;;;;;;;;;;;;;;;;;5044923;28;19920;-77
2024/02/29 14:57:01;;;;;;;;;;;;;;;;;;5042018;28;19920;-77
2024/02/29 14:59:28;;;;;;;;;;;;;;;;;;5038948;28;20002;-77
2024/02/29 15:01:54;;;;;;;;;;;;;;;;;;5047297;28;20279;-77
2024/02/29 15:04:20;;;;;;;;;;;;;;;;;;5033518;28;19913;-77
2024/02/29 15:06:46;;;;;;;;;;;;;;;;;;5030995;28;19923;-77
2024/02/29 15:09:14;;;;;;;;;;;;;;;;;;5049296;28;19998;-77
2024/02/29 15:11:40;;;;;;;;;;;;;;;;;;5048425;28;19913;-77
2024/02/29 15:14:07;;;;;;;;;;;;;;;;;;5043693;28;20299;-78
2024/02/29 15:16:33;;;;;;;;;;;;;;;;;;5039273;28;20016;-77
2024/02/29 15:18:58;;;;;;;;;;;;;;;;;;5054843;28;20451;-77
2024/02/29 15:21:24;;;;;;;;;;;;;;;;;;5052668;28;20397;-77
2024/02/29 15:23:50;;;;;;;;;;;;;;;;;;5039477;28;20315;-76
2024/02/29 15:26:16;;;;;;;;;;;;;;;;;;5042484;28;19924;-77
2024/02/29 15:28:48;;;;;;;;;;;;;;;;;;5041592;28;20377;-76
2024/02/29 15:31:14;;;;;;;;;;;;;;;;;;5038614;28;20587;-76
2024/02/29 15:33:40;;;;;;;;;;;;;;;;;;5052734;28;19999;-76
2024/02/29 15:36:06;;;;;;;;;;;;;;;;;;5050766;28;20075;-76
2024/02/29 15:38:32;;;;;;;;;;;;;;;;;;5053305;28;19990;-76
2024/02/29 15:40:58;;;;;;;;;;;;;;;;;;5052812;28;19920;-76
2024/02/29 15:43:24;;;;;;;;;;;;;;;;;;5058071;28;20379;-76
2024/02/29 15:45:50;;;;;;;;;;;;;;;;;;5060647;28;19916;-76
2024/02/29 15:48:16;;;;;;;;;;;;;;;;;;5050972;28;20520;-76
2024/02/29 15:50:42;;;;;;;;;;;;;;;;;;5051959;28;20060;-76
2024/02/29 15:53:07;;;;;;;;;;;;;;;;;;5060141;28;19913;-76
2024/02/29 15:55:34;;;;;;;;;;;;;;;;;;5044758;28;19921;-76
2024/02/29 15:58:03;;;;;;;;;;;;;;;;;;5042179;28;19964;-76
2024/02/29 16:00:29;;;;;;;;;;;;;;;;;;5052959;28;19921;-76
2024/02/29 16:02:55;;;;;;;;;;;;;;;;;;5050376;28;19917;-76
2024/02/29 16:05:20;;;;;;;;;;;;;;;;;;5054118;28;19999;-76
2024/02/29 16:07:46;;;;;;;;;;;;;;;;;;5050228;28;19913;-76
2024/02/29 16:10:12;;;;;;;;;;;;;;;;;;5052337;28;19921;-76
2024/02/29 16:12:38;;;;;;;;;;;;;;;;;;5050363;28;19909;-75
2024/02/29 16:15:04;;;;;;;;;;;;;;;;;;5044302;28;19956;-76
2024/02/29 16:17:30;;;;;;;;;;;;;;;;;;5047713;28;19920;-77
2024/02/29 16:19:56;;;;;;;;;;;;;;;;;;5053020;28;19928;-77
2024/02/29 16:22:21;;;;;;;;;;;;;;;;;;5055594;28;19913;-77
2024/02/29 16:24:47;;;;;;;;;;;;;;;;;;5052617;28;20565;-77
2024/02/29 16:27:13;;;;;;;;;;;;;;;;;;5052743;28;20641;-77
2024/02/29 16:29:39;;;;;;;;;;;;;;;;;;5045849;28;20143;-77
2024/02/29 16:32:05;;;;;;;;;;;;;;;;;;5048279;28;19919;-77
2024/02/29 16:34:32;;;;;;;;;;;;;;;;;;5061141;28;20367;-77
2024/02/29 16:36:58;;;;;;;;;;;;;;;;;;5049596;28;19916;-77